Terminal Aerodrome Forecast
Issued by NWS Albuquerque, NM

Home | Current Version | Previous Version | Text Only | Print | Product List | Glossary On
Versions: 1 2 3 4 5 6 7 8 9 10 11 12 13 14
412
FTUS45 KABQ 231132
TAFABQ
TAF
KABQ 231132Z 2312/2412 01008KT P6SM FEW150
     FM231800 33009KT P6SM FEW150
     FM232100 09010KT P6SM SCT150
     FM232300 07018G28KT P6SM SCT060
     FM240100 09028G40KT P6SM SCT060
     FM241000 09015G24KT P6SM SCT050=

USA.gov is the U.S. government's official web portal to all federal, state and local government web resources and services.